Time;durP1;ratioP1;P1;durP2;ratioP2;P2;SDS_P1;SDS_P2;PMS_P1;PMS_P2;Temp;Humidity;BMP_temperature;BMP_pressure;BME280_temperature;BME280_humidity;BME280_pressure;Samples;Min_cycle;Max_cycle;Signal;HPM_P1;HPM_P2
2022/11/21 00:01:36;;;;;;;;;45.50;38.25;;;;;8.58;74.44;98552.97;4841645;29;8937;-77
2022/11/21 00:04:06;;;;;;;;;47.00;40.20;;;;;8.52;75.60;98550.41;4855427;29;8914;-79
2022/11/21 00:06:34;;;;;;;;;47.25;38.25;;;;;7.99;77.03;98559.41;4858109;29;8910;-79
2022/11/21 00:09:03;;;;;;;;;39.00;37.50;;;;;8.31;76.32;98555.75;4856053;29;8871;-79
2022/11/21 00:11:31;;;;;;;;;42.60;36.40;;;;;8.18;76.70;98555.84;4856907;29;8950;-77
2022/11/21 00:14:01;;;;;;;;;43.40;39.40;;;;;7.81;78.35;98557.81;4857329;29;8905;-78
2022/11/21 00:16:29;;;;;;;;;41.50;37.25;;;;;7.48;78.80;98557.06;4856057;29;8903;-78
2022/11/21 00:18:59;;;;;;;;;44.75;40.75;;;;;7.31;80.30;98567.50;4855376;29;8887;-78
2022/11/21 00:21:28;;;;;;;;;41.50;35.00;;;;;7.27;81.43;98559.75;4895256;29;8872;-77
2022/11/21 00:23:56;;;;;;;;;42.75;39.25;;;;;7.32;81.75;98566.66;4895900;29;8881;-78
2022/11/21 00:26:25;;;;;;;;;48.25;39.50;;;;;7.14;81.22;98569.31;4896698;29;8895;-77
2022/11/21 00:28:54;;;;;;;;;45.75;41.00;;;;;7.07;83.22;98567.59;4906165;29;8901;-79
2022/11/21 00:31:24;;;;;;;;;49.00;43.25;;;;;7.00;83.21;98572.78;4909075;29;8859;-77
2022/11/21 00:33:52;;;;;;;;;42.00;38.75;;;;;6.95;83.17;98564.16;4893661;29;9760;-77
2022/11/21 00:36:22;;;;;;;;;36.50;33.25;;;;;6.85;83.07;98566.78;4893869;29;9623;-78
2022/11/21 00:38:51;;;;;;;;;46.50;41.50;;;;;6.81;84.63;98574.56;4909329;29;8940;-79
2022/11/21 00:41:19;;;;;;;;;51.75;43.50;;;;;6.71;85.10;98567.66;4893845;29;8895;-79
2022/11/21 00:43:48;;;;;;;;;49.50;43.50;;;;;6.68;85.27;98569.38;4896043;29;8894;-80
2022/11/21 00:46:17;;;;;;;;;33.00;29.25;;;;;6.75;85.27;98568.53;4880438;29;8883;-76
2022/11/21 00:48:45;;;;;;;;;52.25;42.50;;;;;6.69;85.11;98565.91;4892577;29;8871;-79
2022/11/21 00:51:14;;;;;;;;;49.75;41.75;;;;;6.92;85.43;98560.69;4896341;29;8913;-78
2022/11/21 00:53:44;;;;;;;;;53.75;44.25;;;;;6.75;84.96;98550.41;4850310;29;8892;-79
2022/11/21 00:56:12;;;;;;;;;46.50;42.50;;;;;6.76;85.20;98547.78;4872214;29;8884;-81
2022/11/21 00:58:41;;;;;;;;;53.75;41.25;;;;;6.67;85.82;98554.69;4856611;29;9000;-78
2022/11/21 01:01:14;;;;;;;;;52.00;43.50;;;;;6.56;86.79;98544.34;4869484;29;8863;-77
2022/11/21 01:03:45;;;;;;;;;57.75;42.50;;;;;6.62;86.74;98554.72;4866451;29;9628;-79
2022/11/21 01:06:15;;;;;;;;;50.75;44.50;;;;;6.64;86.62;98548.66;4854814;29;8871;-80
2022/11/21 01:08:45;;;;;;;;;48.50;38.25;;;;;6.49;87.40;98542.63;4854449;29;8890;-79
2022/11/21 01:11:16;;;;;;;;;56.00;45.50;;;;;6.36;88.41;98549.53;4855640;29;8894;-80
2022/11/21 01:13:47;;;;;;;;;49.00;43.25;;;;;6.34;88.59;98543.50;4854925;29;8986;-82
2022/11/21 01:16:17;;;;;;;;;62.25;50.25;;;;;6.39;88.81;98544.34;4854519;29;9014;-80
2022/11/21 01:18:47;;;;;;;;;30.25;29.75;;;;;6.38;89.03;98553.84;4853123;29;8885;-80
2022/11/21 01:21:19;;;;;;;;;56.50;46.00;;;;;6.40;89.10;98548.66;4852933;29;8901;-79
2022/11/21 01:23:50;;;;;;;;;55.25;44.50;;;;;6.35;89.33;98552.97;4854916;29;8849;-79
2022/11/21 01:26:20;;;;;;;;;57.00;46.25;;;;;6.37;89.60;98549.53;4850664;29;8859;-80
2022/11/21 01:28:49;;;;;;;;;43.75;41.50;;;;;6.22;89.09;98550.41;4856200;29;8867;-79
2022/11/21 01:31:21;;;;;;;;;54.75;46.75;;;;;6.28;89.79;98544.34;4871644;29;8857;-80
2022/11/21 01:33:50;;;;;;;;;56.00;45.25;;;;;6.13;89.94;98554.72;4884486;29;8850;-81
2022/11/21 01:36:20;;;;;;;;;41.50;35.75;;;;;6.10;89.98;98558.13;4872400;29;8994;-79
2022/11/21 01:38:52;;;;;;;;;42.25;36.50;;;;;6.29;89.96;98551.25;4874005;29;8897;-80
2022/11/21 01:41:24;;;;;;;;;62.50;50.25;;;;;6.50;88.92;98547.78;4875739;29;8873;-80
2022/11/21 01:43:52;;;;;;;;;59.00;46.33;;;;;6.44;88.91;98548.66;4843784;29;8851;-81
2022/11/21 01:46:22;;;;;;;;;65.50;52.50;;;;;6.44;89.28;98542.63;4865152;29;8985;-80
2022/11/21 01:48:55;;;;;;;;;50.50;43.00;;;;;6.11;89.26;98538.31;4877976;29;8977;-78
2022/11/21 01:51:28;;;;;;;;;64.50;50.25;;;;;6.20;90.04;98538.28;4836602;29;8903;-78
2022/11/21 01:54:05;;;;;;;;;53.75;46.75;;;;;6.08;89.93;98556.41;4835884;29;8972;-78
2022/11/21 01:56:41;;;;;;;;;56.00;45.00;;;;;6.20;90.35;98546.94;4855752;29;9008;-82
2022/11/21 01:59:14;;;;;;;;;48.25;40.00;;;;;6.46;88.51;98548.66;4856411;29;9055;-79
2022/11/21 02:01:46;;;;;;;;;53.50;46.75;;;;;6.52;88.20;98540.03;4884293;29;9045;-78
2022/11/21 02:04:15;;;;;;;;;52.50;43.75;;;;;6.55;88.01;98540.03;4871803;29;8889;-79
2022/11/21 02:06:44;;;;;;;;;56.00;47.00;;;;;6.55;87.62;98535.72;4871716;29;9783;-79
2022/11/21 02:09:14;;;;;;;;;56.50;45.00;;;;;6.53;87.85;98549.53;4890024;29;8893;-79
2022/11/21 02:11:49;;;;;;;;;43.75;39.75;;;;;6.46;88.34;98543.47;4878041;29;8989;-78
2022/11/21 02:14:18;;;;;;;;;47.25;40.50;;;;;6.46;87.97;98546.06;4877361;29;8930;-79
2022/11/21 02:16:47;;;;;;;;;42.25;35.50;;;;;6.35;88.52;98535.75;4861394;29;8913;-79
2022/11/21 02:19:31;;;;;;;;;56.00;46.75;;;;;6.20;89.75;98540.88;4890717;29;8924;-78
2022/11/21 02:22:07;;;;;;;;;55.00;44.25;;;;;6.54;88.50;98538.28;4877957;29;8865;-79
2022/11/21 02:24:44;;;;;;;;;49.50;43.75;;;;;6.38;88.72;98540.03;4894057;29;8935;-79
2022/11/21 02:27:16;;;;;;;;;62.25;48.75;;;;;6.08;89.76;98528.81;4871381;29;8903;-79
2022/11/21 02:29:45;;;;;;;;;56.50;43.75;;;;;6.37;89.12;98526.25;4860213;29;8855;-79
2022/11/21 02:32:21;;;;;;;;;54.25;48.00;;;;;6.40;88.53;98528.81;4876201;29;8883;-79
2022/11/21 02:34:50;;;;;;;;;57.75;43.50;;;;;6.36;88.04;98521.06;4879790;29;8883;-80
2022/11/21 02:37:19;;;;;;;;;49.00;42.50;;;;;6.27;89.36;98531.41;4881263;29;8907;-79
2022/11/21 02:39:49;;;;;;;;;61.00;48.50;;;;;6.28;88.76;98527.97;4863976;29;8920;-82
2022/11/21 02:42:26;;;;;;;;;62.75;47.25;;;;;6.30;88.77;98527.09;4856561;29;8982;-79
2022/11/21 02:45:02;;;;;;;;;58.00;47.00;;;;;6.46;88.74;98520.19;4859286;29;8871;-78
2022/11/21 02:47:32;;;;;;;;;62.75;49.75;;;;;6.41;88.16;98515.00;4863455;29;8902;-80
2022/11/21 02:50:07;;;;;;;;;60.00;49.25;;;;;6.40;89.46;98525.38;4876374;29;8954;-77
2022/11/21 02:52:35;;;;;;;;;53.25;40.50;;;;;6.35;88.40;98524.50;4826204;29;9030;-77
2022/11/21 02:55:05;;;;;;;;;59.25;47.25;;;;;6.39;89.02;98523.63;4858795;29;8970;-79
2022/11/21 02:57:35;;;;;;;;;61.50;48.50;;;;;6.35;89.20;98527.09;4858451;29;9047;-78
2022/11/21 03:00:04;;;;;;;;;63.25;49.50;;;;;6.38;88.96;98535.72;4852721;29;8993;-77
2022/11/21 03:02:33;;;;;;;;;63.25;48.75;;;;;6.31;89.14;98523.63;4838200;29;8943;-79
2022/11/21 03:05:02;;;;;;;;;61.75;49.00;;;;;6.30;88.72;98527.09;4838685;29;9033;-78
2022/11/21 03:07:31;;;;;;;;;61.50;49.25;;;;;6.39;88.78;98516.75;4838065;29;8889;-80
2022/11/21 03:10:00;;;;;;;;;62.00;48.50;;;;;6.55;88.13;98529.69;4839002;29;8873;-76
2022/11/21 03:12:28;;;;;;;;;59.00;50.50;;;;;6.45;88.08;98528.81;4855875;29;8874;-78
2022/11/21 03:14:59;;;;;;;;;59.75;49.75;;;;;6.60;87.83;98528.81;4856929;29;8925;-78
2022/11/21 03:17:27;;;;;;;;;65.50;50.75;;;;;6.59;88.17;98532.25;4856982;29;8883;-79
2022/11/21 03:19:56;;;;;;;;;66.25;47.75;;;;;6.47;88.42;98540.03;4856705;29;8905;-77
2022/11/21 03:22:25;;;;;;;;;66.75;51.75;;;;;6.39;88.78;98537.47;4856694;29;8967;-79
2022/11/21 03:24:54;;;;;;;;;64.25;53.50;;;;;6.68;88.52;98535.72;4856789;29;8893;-79
2022/11/21 03:27:22;;;;;;;;;65.25;53.25;;;;;6.74;87.75;98530.50;4892930;29;8883;-77
2022/11/21 03:29:51;;;;;;;;;64.00;49.00;;;;;6.73;87.31;98524.47;4849933;29;9018;-79
2022/11/21 03:32:21;;;;;;;;;66.50;52.50;;;;;6.66;87.80;98532.25;4885008;29;8870;-78
2022/11/21 03:34:50;;;;;;;;;60.75;48.75;;;;;6.55;88.21;98527.94;4879949;29;8888;-77
2022/11/21 03:37:18;;;;;;;;;66.50;48.50;;;;;6.51;88.11;98525.38;4878283;29;8877;-79
2022/11/21 03:39:47;;;;;;;;;63.00;49.75;;;;;6.52;88.30;98533.16;4847464;29;8978;-80
2022/11/21 03:42:16;;;;;;;;;54.50;44.00;;;;;6.58;88.20;98535.72;4877873;29;8867;-78
2022/11/21 03:44:44;;;;;;;;;61.25;48.50;;;;;6.42;89.15;98529.66;4892207;29;8978;-78
2022/11/21 03:47:13;;;;;;;;;64.75;52.00;;;;;6.40;88.63;98531.41;4892219;29;8879;-77
2022/11/21 03:49:43;;;;;;;;;68.50;53.00;;;;;6.58;88.63;98521.91;4891417;29;9678;-76
2022/11/21 03:52:11;;;;;;;;;67.00;53.25;;;;;6.53;88.70;98536.59;4861311;29;8851;-80
2022/11/21 03:54:40;;;;;;;;;65.50;52.00;;;;;6.60;88.27;98538.31;4845920;29;8887;-79
2022/11/21 03:57:09;;;;;;;;;66.50;52.25;;;;;6.43;88.74;98534.00;4891828;29;9700;-79
2022/11/21 03:59:37;;;;;;;;;61.75;51.75;;;;;6.47;88.17;98540.03;4872111;29;8906;-79
2022/11/21 04:02:06;;;;;;;;;53.75;46.00;;;;;6.56;88.78;98526.19;4871364;29;8929;-78
2022/11/21 04:04:35;;;;;;;;;66.00;51.75;;;;;6.36;88.53;98528.81;4855580;29;8899;-78
2022/11/21 04:07:05;;;;;;;;;60.25;47.75;;;;;6.32;88.92;98524.50;4854600;29;8864;-79
2022/11/21 04:09:33;;;;;;;;;60.00;45.50;;;;;6.41;88.83;98524.50;4855493;29;8899;-79
2022/11/21 04:12:02;;;;;;;;;66.75;51.25;;;;;6.42;88.55;98531.41;4870874;29;9023;-79
2022/11/21 04:14:35;;;;;;;;;66.50;52.25;;;;;6.52;88.80;98527.97;4871676;29;8883;-77
2022/11/21 04:17:03;;;;;;;;;62.00;48.50;;;;;6.42;89.04;98536.59;4856320;29;9781;-77
2022/11/21 04:19:32;;;;;;;;;60.75;49.75;;;;;6.37;89.04;98538.31;4856373;29;8902;-77
2022/11/21 04:22:01;;;;;;;;;67.50;50.25;;;;;6.36;89.02;98539.19;4839694;29;9593;-78
2022/11/21 04:24:31;;;;;;;;;57.75;48.00;;;;;6.39;88.64;98539.16;4834922;29;8915;-78
2022/11/21 04:26:59;;;;;;;;;65.50;52.75;;;;;6.24;88.58;98542.63;4856339;29;8897;-78
2022/11/21 04:29:28;;;;;;;;;65.75;51.50;;;;;6.27;89.36;98542.63;4845713;29;8901;-79
2022/11/21 04:31:57;;;;;;;;;69.25;55.00;;;;;6.29;89.54;98540.03;4837702;29;8897;-79
2022/11/21 04:34:26;;;;;;;;;68.75;52.50;;;;;6.29;89.26;98546.06;4837700;29;8874;-79
2022/11/21 04:36:55;;;;;;;;;59.75;48.00;;;;;6.15;89.39;98547.81;4836916;29;8973;-78
2022/11/21 04:39:23;;;;;;;;;60.75;48.50;;;;;6.04;89.91;98550.38;4837175;29;8877;-78
2022/11/21 04:41:53;;;;;;;;;64.00;53.50;;;;;6.06;90.28;98564.16;4829575;29;8904;-78
2022/11/21 04:44:22;;;;;;;;;67.00;50.75;;;;;6.20;90.27;98546.94;4817693;29;8935;-79
2022/11/21 04:46:52;;;;;;;;;70.50;53.25;;;;;6.16;89.54;98558.16;4833493;29;8904;-78
2022/11/21 04:49:20;;;;;;;;;67.25;56.00;;;;;6.29;89.86;98555.56;4819559;29;8887;-80
2022/11/21 04:51:49;;;;;;;;;65.50;51.50;;;;;6.03;90.16;98562.44;4821628;29;9135;-78
2022/11/21 04:54:17;;;;;;;;;67.50;54.75;;;;;6.32;90.00;98558.16;4853640;29;8998;-79
2022/11/21 04:56:46;;;;;;;;;65.50;50.00;;;;;6.35;89.42;98563.34;4822663;29;8921;-78
2022/11/21 04:59:16;;;;;;;;;75.00;54.75;;;;;6.30;89.64;98563.34;4839421;29;9637;-81
2022/11/21 05:01:44;;;;;;;;;66.25;51.75;;;;;6.29;88.26;98582.31;4839928;29;8887;-80
2022/11/21 05:04:13;;;;;;;;;64.50;51.25;;;;;6.00;88.74;98570.19;4844455;29;9013;-80
2022/11/21 05:06:42;;;;;;;;;65.75;53.25;;;;;6.11;88.75;98571.97;4835339;29;8894;-80
2022/11/21 05:09:11;;;;;;;;;71.50;56.75;;;;;6.18;88.56;98563.31;4845117;29;8904;-77
2022/11/21 05:14:41;;;;;;;;;62.25;47.25;;;;;5.94;89.28;98583.09;4818388;29;8984;-79
2022/11/21 05:17:10;;;;;;;;;68.75;54.50;;;;;6.11;88.57;98583.16;4827107;29;8922;-80
2022/11/21 05:19:39;;;;;;;;;61.75;48.25;;;;;6.18;88.48;98584.03;4820112;29;8892;-80
2022/11/21 05:22:08;;;;;;;;;72.25;55.25;;;;;6.23;88.95;98582.31;4841444;29;8895;-78
2022/11/21 05:24:37;;;;;;;;;71.50;57.25;;;;;6.34;88.24;98590.97;4840385;29;8960;-77
2022/11/21 05:27:05;;;;;;;;;68.25;55.50;;;;;6.28;88.85;98590.97;4829948;29;8875;-79
2022/11/21 05:29:34;;;;;;;;;75.50;60.00;;;;;6.32;88.31;98589.25;4818641;29;8883;-78
2022/11/21 05:32:05;;;;;;;;;71.50;57.50;;;;;6.36;88.43;98596.16;4814435;29;8995;-79
2022/11/21 05:34:34;;;;;;;;;70.50;56.00;;;;;5.98;89.53;98600.38;4818098;29;8891;-80
2022/11/21 05:37:04;;;;;;;;;66.25;51.50;;;;;6.03;89.64;98595.22;4832641;29;9974;-79
2022/11/21 05:39:32;;;;;;;;;64.00;53.50;;;;;6.23;88.49;98605.63;4832465;29;8883;-79
2022/11/21 05:42:01;;;;;;;;;67.75;53.25;;;;;6.16;89.00;98601.28;4815446;29;9179;-79
2022/11/21 05:44:30;;;;;;;;;63.50;51.75;;;;;6.23;89.51;98606.47;4818419;29;8867;-78
2022/11/21 05:46:59;;;;;;;;;69.25;53.75;;;;;6.03;89.67;98597.78;4836355;29;9029;-77
2022/11/21 05:49:29;;;;;;;;;66.75;54.75;;;;;6.16;89.29;98604.75;4846014;29;8863;-81
2022/11/21 05:51:57;;;;;;;;;67.50;55.75;;;;;6.01;89.92;98602.09;4831852;29;8901;-80
2022/11/21 05:54:26;;;;;;;;;70.25;56.25;;;;;6.19;89.05;98614.25;4871666;29;8865;-80
2022/11/21 05:56:55;;;;;;;;;70.75;55.75;;;;;6.24;89.00;98617.72;4859589;29;8880;-81
2022/11/21 05:59:24;;;;;;;;;71.00;54.50;;;;;6.32;88.77;98628.06;4860220;29;8876;-80
2022/11/21 06:04:40;;;;;;;;;57.00;42.00;;;;;6.12;88.99;98626.28;4872204;29;8905;-78
2022/11/21 06:07:08;;;;;;;;;68.75;54.50;;;;;5.97;89.67;98634.00;4872047;29;8890;-80
2022/11/21 06:09:37;;;;;;;;;63.50;51.50;;;;;6.07;89.31;98640.06;4839516;29;8958;-74
2022/11/21 06:12:06;;;;;;;;;68.75;55.25;;;;;6.29;89.02;98623.75;4866984;29;8883;-79
2022/11/21 06:14:35;;;;;;;;;74.25;57.50;;;;;6.32;88.45;98639.28;4870116;29;8875;-79
2022/11/21 06:17:03;;;;;;;;;60.50;45.00;;;;;6.18;89.03;98636.69;4867109;29;8982;-79
2022/11/21 06:19:32;;;;;;;;;65.25;53.00;;;;;6.24;88.86;98646.19;4873858;29;8903;-78
2022/11/21 06:22:02;;;;;;;;;38.25;33.25;;;;;6.24;89.06;98646.19;4830470;29;8880;-79
2022/11/21 06:24:31;;;;;;;;;71.75;57.75;;;;;6.35;88.68;98659.13;4819054;29;8874;-80
2022/11/21 06:26:59;;;;;;;;;73.50;58.75;;;;;6.41;89.02;98651.41;4821445;29;8888;-80
2022/11/21 06:29:28;;;;;;;;;72.75;60.00;;;;;6.54;88.50;98663.50;4819500;29;8934;-78
2022/11/21 06:31:57;;;;;;;;;75.75;55.00;;;;;6.59;87.48;98660.91;4824950;29;8894;-78
2022/11/21 06:34:26;;;;;;;;;69.00;54.00;;;;;6.49;87.76;98664.34;4819974;29;8912;-80
2022/11/21 06:36:55;;;;;;;;;74.00;55.75;;;;;6.37;88.87;98672.94;4802420;29;9770;-78
2022/11/21 06:39:26;;;;;;;;;67.75;51.75;;;;;6.37;87.91;98666.06;4818825;29;9660;-80
2022/11/21 06:41:54;;;;;;;;;77.75;58.25;;;;;6.56;87.88;98669.53;4821339;29;8898;-79
2022/11/21 06:44:23;;;;;;;;;72.25;56.00;;;;;6.49;88.11;98672.97;4806786;29;8874;-79
2022/11/21 06:46:51;;;;;;;;;71.00;56.00;;;;;6.56;87.61;98679.91;4837259;29;8878;-79
2022/11/21 06:49:21;;;;;;;;;78.50;60.25;;;;;6.59;88.01;98679.91;4803809;29;8876;-79
2022/11/21 06:51:49;;;;;;;;;75.25;59.50;;;;;6.84;87.43;98679.91;4818453;29;8996;-79
2022/11/21 06:54:18;;;;;;;;;73.75;56.25;;;;;6.55;87.03;98679.91;4818525;29;8922;-81
2022/11/21 06:56:51;;;;;;;;;76.75;59.75;;;;;6.53;87.88;98687.66;4825680;29;8884;-78
2022/11/21 06:59:20;;;;;;;;;70.50;52.50;;;;;6.72;87.17;98685.09;4834491;29;8985;-80
2022/11/21 07:01:49;;;;;;;;;68.25;54.00;;;;;6.91;86.91;98689.41;4842103;29;8973;-81
2022/11/21 07:04:18;;;;;;;;;63.50;51.00;;;;;6.48;87.56;98694.53;4845185;29;9643;-81
2022/11/21 07:06:47;;;;;;;;;70.00;55.75;;;;;6.46;88.27;98688.50;4833471;29;8896;-82
2022/11/21 07:09:16;;;;;;;;;67.00;53.25;;;;;6.53;87.78;98690.25;4847631;29;8975;-80
2022/11/21 07:14:45;;;;;;;;;69.75;53.75;;;;;6.86;86.60;98698.06;4823549;29;8880;-79
2022/11/21 07:17:14;;;;;;;;;66.50;53.50;;;;;6.88;87.05;98696.31;4819648;29;9041;-80
2022/11/21 07:19:43;;;;;;;;;68.25;54.00;;;;;6.76;87.84;98697.19;4824326;29;9005;-79
2022/11/21 07:22:12;;;;;;;;;62.00;47.50;;;;;6.91;87.27;98694.59;4845370;29;8909;-80
2022/11/21 07:24:41;;;;;;;;;65.50;51.25;;;;;7.10;86.61;98692.03;4864361;29;8881;-81
2022/11/21 07:27:10;;;;;;;;;67.75;52.50;;;;;7.54;84.50;98685.91;4843836;29;8885;-80
2022/11/21 07:29:39;;;;;;;;;62.25;49.00;;;;;7.45;84.74;98688.50;4867690;29;8915;-79
2022/11/21 07:32:08;;;;;;;;;66.25;50.00;;;;;7.81;83.91;98691.03;4825846;29;8918;-79
2022/11/21 07:34:36;;;;;;;;;61.50;46.25;;;;;7.61;83.94;98698.00;4861703;29;8925;-79
2022/11/21 07:37:05;;;;;;;;;66.00;50.00;;;;;7.97;83.37;98683.19;4854421;29;8887;-81
2022/11/21 07:39:33;;;;;;;;;61.25;49.75;;;;;8.28;82.39;98683.03;4864560;29;9019;-77
2022/11/21 07:42:02;;;;;;;;;73.00;57.25;;;;;8.29;82.10;98688.22;4868530;29;9769;-78
2022/11/21 07:44:32;;;;;;;;;63.25;47.75;;;;;8.37;81.91;98698.56;4841043;29;8902;-81
2022/11/21 07:47:01;;;;;;;;;65.75;52.25;;;;;8.68;80.82;98703.63;4872155;29;8895;-80
2022/11/21 07:49:30;;;;;;;;;62.50;51.25;;;;;9.00;80.54;98697.31;4858412;29;8958;-78
2022/11/21 07:51:58;;;;;;;;;65.00;51.50;;;;;9.15;79.32;98699.81;4863942;29;8899;-82
2022/11/21 07:54:27;;;;;;;;;60.25;48.25;;;;;8.75;79.87;98694.91;4862884;29;8879;-80
2022/11/21 07:56:56;;;;;;;;;61.50;49.75;;;;;9.04;79.06;98699.91;4870923;29;8894;-79
2022/11/21 07:59:24;;;;;;;;;60.25;48.00;;;;;9.18;79.33;98704.97;4862425;29;8901;-80
2022/11/21 08:01:55;;;;;;;;;62.00;50.00;;;;;8.66;79.73;98703.63;4860704;29;8891;-80
2022/11/21 08:04:24;;;;;;;;;60.50;47.50;;;;;8.70;78.55;98707.09;4849305;29;9013;-78
2022/11/21 08:06:53;;;;;;;;;61.50;50.75;;;;;8.65;79.21;98712.28;4852610;29;8911;-81
2022/11/21 08:09:22;;;;;;;;;57.67;42.33;;;;;8.97;78.94;98719.00;4837697;29;8893;-81
2022/11/21 08:11:50;;;;;;;;;64.25;49.75;;;;;9.12;78.42;98710.22;4856985;29;8980;-79
2022/11/21 08:14:19;;;;;;;;;60.00;46.25;;;;;9.04;78.54;98715.50;4845184;29;8889;-79
2022/11/21 08:16:51;;;;;;;;;58.25;47.00;;;;;9.30;77.96;98710.09;4864361;29;8898;-78
2022/11/21 08:19:21;;;;;;;;;58.25;46.00;;;;;9.34;77.79;98714.38;4837625;29;8902;-80
2022/11/21 08:21:50;;;;;;;;;59.25;47.25;;;;;9.03;78.47;98715.50;4867277;29;9006;-82
2022/11/21 08:24:19;;;;;;;;;58.25;47.25;;;;;9.30;78.39;98719.59;4869422;29;8867;-80
2022/11/21 08:26:48;;;;;;;;;61.25;49.25;;;;;9.61;77.63;98716.75;4862313;29;8922;-81
2022/11/21 08:29:17;;;;;;;;;62.50;50.25;;;;;9.31;78.27;98730.00;4858498;29;8903;-80
2022/11/21 08:31:46;;;;;;;;;56.25;44.75;;;;;9.35;77.43;98731.69;4839533;29;8936;-81
2022/11/21 08:34:15;;;;;;;;;63.50;51.00;;;;;9.43;77.83;98728.16;4858623;29;8936;-81
2022/11/21 08:36:45;;;;;;;;;63.00;49.50;;;;;9.52;76.87;98730.69;4844046;29;9019;-82
2022/11/21 08:39:13;;;;;;;;;58.00;47.00;;;;;9.45;76.99;98740.31;4847198;29;8923;-80
2022/11/21 08:44:29;;;;;;;;;53.25;42.75;;;;;9.63;76.26;98726.25;4854088;29;8890;-80
2022/11/21 08:46:58;;;;;;;;;59.75;46.00;;;;;9.88;76.13;98729.44;4841485;29;8888;-79
2022/11/21 08:49:27;;;;;;;;;50.75;40.25;;;;;9.98;76.15;98725.03;4859521;29;8883;-81
2022/11/21 08:51:57;;;;;;;;;52.25;41.75;;;;;9.81;75.47;98729.53;4847077;29;8981;-79
2022/11/21 08:54:26;;;;;;;;;47.00;41.75;;;;;9.92;75.86;98735.47;4866823;29;8867;-79
2022/11/21 08:56:55;;;;;;;;;42.00;38.25;;;;;10.03;75.81;98735.38;4860570;29;8975;-81
2022/11/21 08:59:24;;;;;;;;;52.00;43.50;;;;;10.21;76.35;98731.66;4866119;29;8955;-81
2022/11/21 09:01:52;;;;;;;;;52.75;44.75;;;;;10.27;75.77;98736.84;4838647;29;8943;-81
2022/11/21 09:04:22;;;;;;;;;52.50;43.75;;;;;10.23;75.69;98740.34;4841417;29;8869;-79
2022/11/21 09:06:50;;;;;;;;;47.00;41.75;;;;;9.91;75.46;98739.84;4845939;29;8879;-82
2022/11/21 09:09:20;;;;;;;;;59.00;46.75;;;;;10.02;75.82;98741.44;4868587;29;8910;-79
2022/11/21 09:11:52;;;;;;;;;41.50;37.00;;;;;10.35;75.42;98735.00;4870309;29;8875;-80
2022/11/21 09:20:01;;;;;;;;;49.00;40.50;;;;;9.42;75.92;98737.72;4813138;29;8889;-78
2022/11/21 09:22:29;;;;;;;;;53.75;45.25;;;;;9.82;75.87;98742.53;4834488;29;8886;-80
2022/11/21 09:24:59;;;;;;;;;62.75;48.75;;;;;10.17;76.02;98737.81;4834713;29;8897;-77
2022/11/21 09:27:28;;;;;;;;;61.25;48.50;;;;;9.93;75.17;98737.22;4834281;29;8889;-80
2022/11/21 09:29:57;;;;;;;;;59.50;44.50;;;;;9.72;75.48;98739.16;4818983;29;8939;-82
2022/11/21 09:32:25;;;;;;;;;58.00;45.50;;;;;9.95;75.92;98727.66;4830264;29;9020;-79
2022/11/21 09:34:54;;;;;;;;;58.00;45.00;;;;;9.97;74.08;98727.63;4808520;29;8901;-79
2022/11/21 09:37:22;;;;;;;;;57.50;46.25;;;;;10.04;73.38;98730.16;4874397;29;9044;-80
2022/11/21 09:39:51;;;;;;;;;57.00;44.00;;;;;9.87;74.78;98727.72;4876632;29;8879;-81
2022/11/21 09:42:42;;;;;;;;;59.25;48.75;;;;;10.10;74.95;98732.69;4863365;29;8909;-79
2022/11/21 09:45:15;;;;;;;;;53.25;45.25;;;;;10.36;74.01;98721.13;4863759;29;8871;-81
2022/11/21 09:47:47;;;;;;;;;53.50;44.50;;;;;10.46;75.19;98722.69;4868959;29;8937;-79
2022/11/21 09:50:31;;;;;;;;;57.00;44.75;;;;;10.76;74.14;98719.69;4845449;29;8902;-78
2022/11/21 09:53:05;;;;;;;;;57.50;46.25;;;;;10.68;74.02;98715.47;4874110;29;8911;-80
2022/11/21 09:55:42;;;;;;;;;58.50;47.00;;;;;10.71;73.54;98711.94;4887259;29;8897;-82
2022/11/21 09:58:25;;;;;;;;;57.50;47.75;;;;;11.01;73.22;98710.59;4880091;29;9038;-81
2022/11/21 10:00:54;;;;;;;;;60.50;47.00;;;;;10.76;72.86;98712.72;4862539;29;8885;-78
2022/11/21 10:03:26;;;;;;;;;45.75;41.25;;;;;10.79;73.22;98704.84;4884829;29;8954;-79
2022/11/21 10:06:01;;;;;;;;;51.00;41.25;;;;;10.72;72.15;98711.91;4880372;29;8875;-81
2022/11/21 10:08:41;;;;;;;;;47.25;41.00;;;;;10.48;73.18;98705.28;4871802;29;8914;-79
2022/11/21 10:11:24;;;;;;;;;58.80;46.80;;;;;10.04;74.10;98704.09;4858116;29;8869;-80
2022/11/21 10:14:13;;;;;;;;;53.25;42.25;;;;;10.27;72.94;98702.97;4849472;29;8909;-80
2022/11/21 10:16:50;;;;;;;;;52.00;43.75;;;;;10.40;73.61;98703.69;4876207;29;9037;-77
2022/11/21 10:19:39;;;;;;;;;50.75;41.25;;;;;10.17;73.58;98699.63;4869876;29;8925;-81
2022/11/21 10:22:28;;;;;;;;;55.75;45.50;;;;;10.39;72.91;98700.19;4869162;29;8871;-80
2022/11/21 10:25:03;;;;;;;;;54.00;42.50;;;;;10.70;71.88;98697.19;4861263;29;8889;-80
2022/11/21 10:27:39;;;;;;;;;44.60;39.00;;;;;10.88;72.06;98689.06;4862232;29;8875;-79
2022/11/21 10:30:15;;;;;;;;;46.00;41.00;;;;;10.82;72.33;98688.31;4861538;29;8883;-80
2022/11/21 10:32:48;;;;;;;;;53.00;43.75;;;;;10.58;71.06;98676.50;4845095;29;8886;-78
2022/11/21 10:35:21;;;;;;;;;51.50;43.25;;;;;10.57;71.25;98678.25;4881240;29;8897;-80
2022/11/21 10:37:53;;;;;;;;;57.25;44.75;;;;;10.40;71.09;98669.81;4866859;29;8898;-79
2022/11/21 10:40:32;;;;;;;;;45.00;38.75;;;;;10.73;70.58;98673.66;4881466;29;8879;-79
2022/11/21 10:45:15;;;;;;;;;54.75;44.25;;;;;10.43;72.31;98668.00;4909936;29;8927;-79
2022/11/21 10:45:55;;;;;;;;;52.00;44.25;;;;;10.57;71.37;98672.16;4900407;29;8903;-78
2022/11/21 10:48:23;;;;;;;;;47.50;41.25;;;;;10.06;72.15;98671.06;4897826;29;8879;-79
2022/11/21 10:51:10;;;;;;;;;52.00;41.25;;;;;10.05;71.14;98664.13;4896207;29;8875;-79
2022/11/21 10:56:34;;;;;;;;;49.25;42.75;;;;;10.50;72.34;98669.63;4829744;29;8885;-79
2022/11/21 10:59:13;;;;;;;;;41.25;36.75;;;;;10.60;70.71;98666.91;4855036;29;8884;-80
2022/11/21 11:01:55;;;;;;;;;44.00;40.00;;;;;10.52;70.55;98662.66;4845772;29;8882;-78
2022/11/21 11:04:23;;;;;;;;;57.00;45.50;;;;;10.36;72.22;98660.28;4830878;29;8895;-78
2022/11/21 11:07:23;;;;;;;;;43.75;38.25;;;;;10.70;70.67;98652.84;4836000;29;8867;-80
2022/11/21 11:09:53;;;;;;;;;56.00;45.25;;;;;10.62;71.09;98659.91;4816999;29;8893;-79
2022/11/21 11:13:32;;;;;;;;;52.75;43.50;;;;;10.70;70.57;98652.84;4827586;29;8987;-78
2022/11/21 11:15:25;;;;;;;;;55.00;46.25;;;;;10.64;70.29;98653.81;4821026;29;8895;-78
2022/11/21 11:17:57;;;;;;;;;56.50;47.50;;;;;10.71;70.20;98659.78;4824411;29;9021;-78
2022/11/21 11:20:36;;;;;;;;;47.75;42.00;;;;;10.64;71.97;98656.41;4835913;29;9002;-79
2022/11/21 11:23:26;;;;;;;;;55.00;45.00;;;;;10.32;71.12;98657.75;4851861;29;9012;-78
2022/11/21 11:25:57;;;;;;;;;47.25;41.75;;;;;10.72;71.17;98653.69;4858183;29;8875;-78
2022/11/21 11:28:26;;;;;;;;;46.00;39.00;;;;;10.28;71.55;98653.44;4824922;29;8963;-78
2022/11/21 11:30:56;;;;;;;;;51.50;42.25;;;;;10.66;70.54;98649.44;4841117;29;8895;-77
2022/11/21 11:33:37;;;;;;;;;52.25;41.75;;;;;10.26;71.40;98651.72;4839529;29;8901;-80
2022/11/21 11:36:15;;;;;;;;;51.25;41.50;;;;;10.78;70.21;98650.97;4862855;29;8886;-77
2022/11/21 11:38:51;;;;;;;;;51.25;43.25;;;;;11.06;70.36;98645.31;4869594;29;9697;-77
2022/11/21 11:47:33;;;;;;;;;46.25;41.50;;;;;11.44;69.28;98657.69;4839653;29;8891;-81
2022/11/21 11:50:11;;;;;;;;;45.75;41.50;;;;;11.91;70.18;98657.69;4840921;29;8895;-79
2022/11/21 11:52:50;;;;;;;;;55.75;46.50;;;;;12.03;68.59;98648.72;4850059;29;8965;-80
2022/11/21 11:55:24;;;;;;;;;49.00;39.75;;;;;11.52;67.88;98657.53;4872046;29;9080;-79
2022/11/21 11:57:56;;;;;;;;;51.75;43.25;;;;;11.37;68.92;98650.84;4842123;29;10053;-81
2022/11/21 12:00:35;;;;;;;;;52.50;43.50;;;;;11.34;69.52;98653.50;4857974;29;8994;-80
2022/11/21 12:03:11;;;;;;;;;50.75;42.75;;;;;11.80;69.50;98644.81;4871377;29;9642;-80
2022/11/21 12:05:53;;;;;;;;;54.50;44.75;;;;;11.67;68.28;98643.34;4862480;29;8909;-79
2022/11/21 12:08:27;;;;;;;;;47.50;41.00;;;;;11.79;67.89;98644.81;4842513;29;8875;-80
2022/11/21 12:15:47;;;;;;;;;61.25;48.00;;;;;11.92;66.26;98632.41;4856223;29;8902;-78
2022/11/21 12:17:09;;;;;;;;;54.50;44.75;;;;;11.62;68.30;98627.72;4867796;29;9785;-77
2022/11/21 12:19:39;;;;;;;;;57.00;46.00;;;;;12.05;68.59;98633.88;4864079;29;8967;-78